sensor_id;sensor_type;location;lat;lon;timestamp;pressure;altitude;pressure_sealevel;temperature
45850;BMP180;10739;52.198;20.908;2024-03-29T00:02:12;98588.00;;;13.40
45850;BMP180;10739;52.198;20.908;2024-03-29T00:04:38;98579.00;;;12.90
45850;BMP180;10739;52.198;20.908;2024-03-29T00:07:04;98584.00;;;13.00
45850;BMP180;10739;52.198;20.908;2024-03-29T00:09:30;98591.00;;;13.10
45850;BMP180;10739;52.198;20.908;2024-03-29T00:11:56;98596.00;;;12.80
45850;BMP180;10739;52.198;20.908;2024-03-29T00:14:22;98613.00;;;12.90
45850;BMP180;10739;52.198;20.908;2024-03-29T00:16:48;98614.00;;;13.00
45850;BMP180;10739;52.198;20.908;2024-03-29T00:19:14;98617.00;;;13.20
45850;BMP180;10739;52.198;20.908;2024-03-29T00:21:40;98608.00;;;13.20
45850;BMP180;10739;52.198;20.908;2024-03-29T00:24:06;98615.00;;;13.00
45850;BMP180;10739;52.198;20.908;2024-03-29T00:26:33;98621.00;;;12.90
45850;BMP180;10739;52.198;20.908;2024-03-29T00:28:59;98622.00;;;12.70
45850;BMP180;10739;52.198;20.908;2024-03-29T00:31:25;98627.00;;;13.10
45850;BMP180;10739;52.198;20.908;2024-03-29T00:33:51;98629.00;;;13.30
45850;BMP180;10739;52.198;20.908;2024-03-29T00:36:17;98637.00;;;12.90
45850;BMP180;10739;52.198;20.908;2024-03-29T00:38:43;98634.00;;;13.00
45850;BMP180;10739;52.198;20.908;2024-03-29T00:41:09;98645.00;;;13.00
45850;BMP180;10739;52.198;20.908;2024-03-29T00:43:35;98652.00;;;13.00
45850;BMP180;10739;52.198;20.908;2024-03-29T00:46:01;98668.00;;;13.10
45850;BMP180;10739;52.198;20.908;2024-03-29T00:48:27;98659.00;;;13.30
45850;BMP180;10739;52.198;20.908;2024-03-29T00:50:53;98664.00;;;13.30
45850;BMP180;10739;52.198;20.908;2024-03-29T00:53:19;98672.00;;;13.20
45850;BMP180;10739;52.198;20.908;2024-03-29T00:55:45;98678.00;;;13.00
45850;BMP180;10739;52.198;20.908;2024-03-29T00:58:11;98680.00;;;12.80
45850;BMP180;10739;52.198;20.908;2024-03-29T01:00:37;98682.00;;;12.70
45850;BMP180;10739;52.198;20.908;2024-03-29T01:03:03;98702.00;;;12.40
45850;BMP180;10739;52.198;20.908;2024-03-29T01:05:29;98698.00;;;12.70
45850;BMP180;10739;52.198;20.908;2024-03-29T01:07:55;98706.00;;;12.50
45850;BMP180;10739;52.198;20.908;2024-03-29T01:10:21;98707.00;;;11.90
45850;BMP180;10739;52.198;20.908;2024-03-29T01:12:48;98710.00;;;11.90
45850;BMP180;10739;52.198;20.908;2024-03-29T01:15:14;98725.00;;;12.10
45850;BMP180;10739;52.198;20.908;2024-03-29T01:17:40;98720.00;;;12.10
45850;BMP180;10739;52.198;20.908;2024-03-29T01:20:07;98731.00;;;12.00
45850;BMP180;10739;52.198;20.908;2024-03-29T01:22:34;98746.00;;;11.90
45850;BMP180;10739;52.198;20.908;2024-03-29T01:25:01;98740.00;;;11.80
45850;BMP180;10739;52.198;20.908;2024-03-29T01:27:29;98744.00;;;12.00
45850;BMP180;10739;52.198;20.908;2024-03-29T01:29:55;98743.00;;;11.90
45850;BMP180;10739;52.198;20.908;2024-03-29T01:32:21;98753.00;;;12.00
45850;BMP180;10739;52.198;20.908;2024-03-29T01:34:48;98764.00;;;12.10
45850;BMP180;10739;52.198;20.908;2024-03-29T01:37:14;98765.00;;;12.10
45850;BMP180;10739;52.198;20.908;2024-03-29T01:39:40;98770.00;;;12.00
45850;BMP180;10739;52.198;20.908;2024-03-29T01:42:06;98777.00;;;12.00
45850;BMP180;10739;52.198;20.908;2024-03-29T01:44:32;98774.00;;;12.40
45850;BMP180;10739;52.198;20.908;2024-03-29T01:46:59;98793.00;;;12.10
45850;BMP180;10739;52.198;20.908;2024-03-29T01:49:25;98785.00;;;12.10
45850;BMP180;10739;52.198;20.908;2024-03-29T01:51:52;98794.00;;;12.10
45850;BMP180;10739;52.198;20.908;2024-03-29T01:54:18;98793.00;;;12.00
45850;BMP180;10739;52.198;20.908;2024-03-29T01:56:44;98794.00;;;12.70
45850;BMP180;10739;52.198;20.908;2024-03-29T01:59:16;98804.00;;;12.80
45850;BMP180;10739;52.198;20.908;2024-03-29T02:01:42;98800.00;;;12.90
45850;BMP180;10739;52.198;20.908;2024-03-29T02:04:09;98801.00;;;12.70
45850;BMP180;10739;52.198;20.908;2024-03-29T02:06:37;98811.00;;;12.20
45850;BMP180;10739;52.198;20.908;2024-03-29T02:09:04;98812.00;;;12.50
45850;BMP180;10739;52.198;20.908;2024-03-29T02:11:30;98822.00;;;12.50
45850;BMP180;10739;52.198;20.908;2024-03-29T02:13:57;98828.00;;;12.60
45850;BMP180;10739;52.198;20.908;2024-03-29T02:16:23;98827.00;;;12.50
45850;BMP180;10739;52.198;20.908;2024-03-29T02:18:49;98827.00;;;12.90
45850;BMP180;10739;52.198;20.908;2024-03-29T02:21:16;98826.00;;;13.00
45850;BMP180;10739;52.198;20.908;2024-03-29T02:23:46;98830.00;;;12.80
45850;BMP180;10739;52.198;20.908;2024-03-29T02:26:13;98846.00;;;12.80
45850;BMP180;10739;52.198;20.908;2024-03-29T02:28:39;98850.00;;;12.70
45850;BMP180;10739;52.198;20.908;2024-03-29T02:31:06;98851.00;;;12.80
45850;BMP180;10739;52.198;20.908;2024-03-29T02:33:33;98863.00;;;12.90
45850;BMP180;10739;52.198;20.908;2024-03-29T02:35:59;98856.00;;;12.90
45850;BMP180;10739;52.198;20.908;2024-03-29T02:38:25;98868.00;;;13.00
45850;BMP180;10739;52.198;20.908;2024-03-29T02:40:52;98874.00;;;12.70
45850;BMP180;10739;52.198;20.908;2024-03-29T02:43:18;98868.00;;;12.30
45850;BMP180;10739;52.198;20.908;2024-03-29T02:45:44;98894.00;;;12.50
45850;BMP180;10739;52.198;20.908;2024-03-29T02:48:10;98891.00;;;12.80
45850;BMP180;10739;52.198;20.908;2024-03-29T02:50:37;98899.00;;;12.30
45850;BMP180;10739;52.198;20.908;2024-03-29T02:53:03;98906.00;;;12.50
45850;BMP180;10739;52.198;20.908;2024-03-29T02:55:29;98919.00;;;12.90
45850;BMP180;10739;52.198;20.908;2024-03-29T02:57:56;98919.00;;;12.90
45850;BMP180;10739;52.198;20.908;2024-03-29T03:00:22;98927.00;;;12.70
45850;BMP180;10739;52.198;20.908;2024-03-29T03:02:48;98921.00;;;11.90
45850;BMP180;10739;52.198;20.908;2024-03-29T03:05:14;98933.00;;;12.10
45850;BMP180;10739;52.198;20.908;2024-03-29T03:07:40;98938.00;;;12.10
45850;BMP180;10739;52.198;20.908;2024-03-29T03:10:25;98940.00;;;12.00
45850;BMP180;10739;52.198;20.908;2024-03-29T03:13:10;98951.00;;;12.40
45850;BMP180;10739;52.198;20.908;2024-03-29T03:15:36;98966.00;;;12.10
45850;BMP180;10739;52.198;20.908;2024-03-29T03:18:02;98957.00;;;11.90
45850;BMP180;10739;52.198;20.908;2024-03-29T03:20:28;98964.00;;;11.80
45850;BMP180;10739;52.198;20.908;2024-03-29T03:22:57;98969.00;;;12.20
45850;BMP180;10739;52.198;20.908;2024-03-29T03:25:26;98979.00;;;12.40
45850;BMP180;10739;52.198;20.908;2024-03-29T03:27:53;98974.00;;;12.20
45850;BMP180;10739;52.198;20.908;2024-03-29T03:30:19;98977.00;;;12.40
45850;BMP180;10739;52.198;20.908;2024-03-29T03:32:45;98982.00;;;12.20
45850;BMP180;10739;52.198;20.908;2024-03-29T03:35:11;98983.00;;;12.20
45850;BMP180;10739;52.198;20.908;2024-03-29T03:37:38;98992.00;;;12.50
45850;BMP180;10739;52.198;20.908;2024-03-29T03:40:05;99003.00;;;12.40
45850;BMP180;10739;52.198;20.908;2024-03-29T03:42:32;98997.00;;;11.70
45850;BMP180;10739;52.198;20.908;2024-03-29T03:44:59;99015.00;;;11.80
45850;BMP180;10739;52.198;20.908;2024-03-29T03:47:25;99015.00;;;11.90
45850;BMP180;10739;52.198;20.908;2024-03-29T03:49:51;99024.00;;;12.00
45850;BMP180;10739;52.198;20.908;2024-03-29T03:52:17;99019.00;;;11.70
45850;BMP180;10739;52.198;20.908;2024-03-29T03:54:44;99019.00;;;11.60
45850;BMP180;10739;52.198;20.908;2024-03-29T03:57:10;99017.00;;;11.50
45850;BMP180;10739;52.198;20.908;2024-03-29T03:59:36;99023.00;;;11.70
45850;BMP180;10739;52.198;20.908;2024-03-29T04:02:03;99035.00;;;11.70
45850;BMP180;10739;52.198;20.908;2024-03-29T04:04:31;99031.00;;;11.70
45850;BMP180;10739;52.198;20.908;2024-03-29T04:06:57;99026.00;;;11.80
45850;BMP180;10739;52.198;20.908;2024-03-29T04:09:23;99035.00;;;11.70
45850;BMP180;10739;52.198;20.908;2024-03-29T04:11:49;99038.00;;;11.60
45850;BMP180;10739;52.198;20.908;2024-03-29T04:14:15;99040.00;;;11.80
45850;BMP180;10739;52.198;20.908;2024-03-29T04:16:41;99032.00;;;11.50
45850;BMP180;10739;52.198;20.908;2024-03-29T04:19:08;99049.00;;;11.70
45850;BMP180;10739;52.198;20.908;2024-03-29T04:21:34;99041.00;;;11.60
45850;BMP180;10739;52.198;20.908;2024-03-29T04:24:00;99067.00;;;11.40
45850;BMP180;10739;52.198;20.908;2024-03-29T04:26:26;99075.00;;;11.50
45850;BMP180;10739;52.198;20.908;2024-03-29T04:28:53;99078.00;;;11.30
45850;BMP180;10739;52.198;20.908;2024-03-29T04:31:19;99076.00;;;11.40
45850;BMP180;10739;52.198;20.908;2024-03-29T04:33:45;99078.00;;;11.40
45850;BMP180;10739;52.198;20.908;2024-03-29T04:36:11;99073.00;;;11.30
45850;BMP180;10739;52.198;20.908;2024-03-29T04:38:37;99084.00;;;11.70
45850;BMP180;10739;52.198;20.908;2024-03-29T04:41:03;99086.00;;;11.50
45850;BMP180;10739;52.198;20.908;2024-03-29T04:43:29;99079.00;;;11.70
45850;BMP180;10739;52.198;20.908;2024-03-29T04:46:10;99099.00;;;11.60
45850;BMP180;10739;52.198;20.908;2024-03-29T04:48:41;99109.00;;;11.80
45850;BMP180;10739;52.198;20.908;2024-03-29T04:51:11;99116.00;;;11.70
45850;BMP180;10739;52.198;20.908;2024-03-29T04:53:38;99131.00;;;11.40
45850;BMP180;10739;52.198;20.908;2024-03-29T04:56:05;99132.00;;;11.50
45850;BMP180;10739;52.198;20.908;2024-03-29T04:58:32;99123.00;;;11.50
45850;BMP180;10739;52.198;20.908;2024-03-29T05:00:59;99117.00;;;11.50
45850;BMP180;10739;52.198;20.908;2024-03-29T05:03:26;99135.00;;;11.20
45850;BMP180;10739;52.198;20.908;2024-03-29T05:05:53;99128.00;;;11.30
45850;BMP180;10739;52.198;20.908;2024-03-29T05:08:20;99120.00;;;11.20
45850;BMP180;10739;52.198;20.908;2024-03-29T05:10:49;99119.00;;;11.20
45850;BMP180;10739;52.198;20.908;2024-03-29T05:13:16;99126.00;;;11.60
45850;BMP180;10739;52.198;20.908;2024-03-29T05:15:43;99136.00;;;11.50
45850;BMP180;10739;52.198;20.908;2024-03-29T05:18:09;99134.00;;;11.20
45850;BMP180;10739;52.198;20.908;2024-03-29T05:20:35;99131.00;;;11.20
45850;BMP180;10739;52.198;20.908;2024-03-29T05:23:02;99131.00;;;11.20
45850;BMP180;10739;52.198;20.908;2024-03-29T05:25:28;99132.00;;;11.30
45850;BMP180;10739;52.198;20.908;2024-03-29T05:27:55;99130.00;;;11.40
45850;BMP180;10739;52.198;20.908;2024-03-29T05:30:21;99152.00;;;11.60
45850;BMP180;10739;52.198;20.908;2024-03-29T05:32:47;99134.00;;;11.70
45850;BMP180;10739;52.198;20.908;2024-03-29T05:35:13;99143.00;;;11.50
45850;BMP180;10739;52.198;20.908;2024-03-29T05:37:40;99143.00;;;11.90
45850;BMP180;10739;52.198;20.908;2024-03-29T05:40:08;99147.00;;;11.90
45850;BMP180;10739;52.198;20.908;2024-03-29T05:42:35;99136.00;;;11.80
45850;BMP180;10739;52.198;20.908;2024-03-29T05:45:28;99155.00;;;11.50
45850;BMP180;10739;52.198;20.908;2024-03-29T05:47:57;99147.00;;;11.60
45850;BMP180;10739;52.198;20.908;2024-03-29T05:50:24;99147.00;;;11.30
45850;BMP180;10739;52.198;20.908;2024-03-29T05:52:52;99144.00;;;11.30
45850;BMP180;10739;52.198;20.908;2024-03-29T05:55:19;99148.00;;;11.80
45850;BMP180;10739;52.198;20.908;2024-03-29T05:57:45;99148.00;;;12.00
45850;BMP180;10739;52.198;20.908;2024-03-29T06:00:13;99157.00;;;11.70
45850;BMP180;10739;52.198;20.908;2024-03-29T06:02:43;99145.00;;;11.70
45850;BMP180;10739;52.198;20.908;2024-03-29T06:05:14;99143.00;;;12.20
45850;BMP180;10739;52.198;20.908;2024-03-29T06:07:40;99149.00;;;12.00
45850;BMP180;10739;52.198;20.908;2024-03-29T06:10:06;99144.00;;;12.10
45850;BMP180;10739;52.198;20.908;2024-03-29T06:12:35;99148.00;;;12.00
45850;BMP180;10739;52.198;20.908;2024-03-29T06:15:02;99150.00;;;12.20
45850;BMP180;10739;52.198;20.908;2024-03-29T06:17:46;99153.00;;;12.20
45850;BMP180;10739;52.198;20.908;2024-03-29T06:20:13;99168.00;;;12.40
45850;BMP180;10739;52.198;20.908;2024-03-29T06:22:39;99172.00;;;12.50
45850;BMP180;10739;52.198;20.908;2024-03-29T06:25:07;99188.00;;;12.30
45850;BMP180;10739;52.198;20.908;2024-03-29T06:27:36;99194.00;;;12.60
45850;BMP180;10739;52.198;20.908;2024-03-29T06:30:05;99193.00;;;12.10
45850;BMP180;10739;52.198;20.908;2024-03-29T06:32:32;99195.00;;;12.30
45850;BMP180;10739;52.198;20.908;2024-03-29T06:34:59;99190.00;;;12.30
45850;BMP180;10739;52.198;20.908;2024-03-29T06:37:28;99191.00;;;12.60
45850;BMP180;10739;52.198;20.908;2024-03-29T06:39:55;99209.00;;;12.40
45850;BMP180;10739;52.198;20.908;2024-03-29T06:42:21;99202.00;;;12.40
45850;BMP180;10739;52.198;20.908;2024-03-29T06:44:47;99217.00;;;13.10
45850;BMP180;10739;52.198;20.908;2024-03-29T06:47:13;99212.00;;;12.60
45850;BMP180;10739;52.198;20.908;2024-03-29T06:49:40;99231.00;;;13.20
45850;BMP180;10739;52.198;20.908;2024-03-29T06:52:06;99222.00;;;13.30
45850;BMP180;10739;52.198;20.908;2024-03-29T06:54:32;99226.00;;;13.50
45850;BMP180;10739;52.198;20.908;2024-03-29T06:56:59;99232.00;;;14.00
45850;BMP180;10739;52.198;20.908;2024-03-29T06:59:27;99237.00;;;14.20
45850;BMP180;10739;52.198;20.908;2024-03-29T07:01:53;99234.00;;;15.30
45850;BMP180;10739;52.198;20.908;2024-03-29T07:04:25;99231.00;;;16.00
45850;BMP180;10739;52.198;20.908;2024-03-29T07:06:54;99243.00;;;16.30
45850;BMP180;10739;52.198;20.908;2024-03-29T07:09:22;99229.00;;;16.50
45850;BMP180;10739;52.198;20.908;2024-03-29T07:11:52;99232.00;;;16.40
45850;BMP180;10739;52.198;20.908;2024-03-29T07:14:19;99229.00;;;16.50
45850;BMP180;10739;52.198;20.908;2024-03-29T07:16:46;99223.00;;;16.70
45850;BMP180;10739;52.198;20.908;2024-03-29T07:19:13;99228.00;;;16.30
45850;BMP180;10739;52.198;20.908;2024-03-29T07:21:46;99224.00;;;16.20
45850;BMP180;10739;52.198;20.908;2024-03-29T07:24:12;99230.00;;;16.90
45850;BMP180;10739;52.198;20.908;2024-03-29T07:26:39;99223.00;;;16.70
45850;BMP180;10739;52.198;20.908;2024-03-29T07:29:06;99228.00;;;16.50
45850;BMP180;10739;52.198;20.908;2024-03-29T07:31:33;99226.00;;;16.10
45850;BMP180;10739;52.198;20.908;2024-03-29T07:34:00;99238.00;;;16.20
45850;BMP180;10739;52.198;20.908;2024-03-29T07:36:27;99230.00;;;15.50
45850;BMP180;10739;52.198;20.908;2024-03-29T07:38:59;99231.00;;;14.50
45850;BMP180;10739;52.198;20.908;2024-03-29T07:41:26;99227.00;;;14.70
45850;BMP180;10739;52.198;20.908;2024-03-29T07:43:57;99236.00;;;14.30
45850;BMP180;10739;52.198;20.908;2024-03-29T07:46:33;99237.00;;;14.60
45850;BMP180;10739;52.198;20.908;2024-03-29T07:49:00;99230.00;;;14.70
45850;BMP180;10739;52.198;20.908;2024-03-29T07:51:27;99237.00;;;14.60
45850;BMP180;10739;52.198;20.908;2024-03-29T07:53:53;99233.00;;;15.00
45850;BMP180;10739;52.198;20.908;2024-03-29T07:56:19;99240.00;;;16.00
45850;BMP180;10739;52.198;20.908;2024-03-29T07:58:53;99238.00;;;16.00
45850;BMP180;10739;52.198;20.908;2024-03-29T08:01:23;99243.00;;;15.70
45850;BMP180;10739;52.198;20.908;2024-03-29T08:03:53;99253.00;;;16.10
45850;BMP180;10739;52.198;20.908;2024-03-29T08:06:22;99261.00;;;15.10
45850;BMP180;10739;52.198;20.908;2024-03-29T08:08:50;99260.00;;;15.40
45850;BMP180;10739;52.198;20.908;2024-03-29T08:11:17;99275.00;;;15.80
45850;BMP180;10739;52.198;20.908;2024-03-29T08:13:43;99278.00;;;16.10
45850;BMP180;10739;52.198;20.908;2024-03-29T08:16:09;99274.00;;;16.50
45850;BMP180;10739;52.198;20.908;2024-03-29T08:18:36;99269.00;;;16.30
45850;BMP180;10739;52.198;20.908;2024-03-29T08:21:03;99279.00;;;16.40
45850;BMP180;10739;52.198;20.908;2024-03-29T08:23:29;99263.00;;;16.70
45850;BMP180;10739;52.198;20.908;2024-03-29T08:25:56;99266.00;;;16.50
45850;BMP180;10739;52.198;20.908;2024-03-29T08:28:23;99267.00;;;17.60
45850;BMP180;10739;52.198;20.908;2024-03-29T08:31:05;99262.00;;;17.50
45850;BMP180;10739;52.198;20.908;2024-03-29T08:33:32;99259.00;;;17.70
45850;BMP180;10739;52.198;20.908;2024-03-29T08:35:58;99264.00;;;17.80
45850;BMP180;10739;52.198;20.908;2024-03-29T08:38:24;99275.00;;;18.70
45850;BMP180;10739;52.198;20.908;2024-03-29T08:40:51;99271.00;;;19.10
45850;BMP180;10739;52.198;20.908;2024-03-29T08:43:17;99274.00;;;19.20
45850;BMP180;10739;52.198;20.908;2024-03-29T08:45:47;99283.00;;;18.70
45850;BMP180;10739;52.198;20.908;2024-03-29T08:48:14;99284.00;;;18.20
45850;BMP180;10739;52.198;20.908;2024-03-29T08:50:40;99288.00;;;18.40
45850;BMP180;10739;52.198;20.908;2024-03-29T08:53:07;99290.00;;;19.20
45850;BMP180;10739;52.198;20.908;2024-03-29T08:55:37;99297.00;;;18.30
45850;BMP180;10739;52.198;20.908;2024-03-29T08:58:05;99292.00;;;18.50
45850;BMP180;10739;52.198;20.908;2024-03-29T09:00:31;99300.00;;;19.00
45850;BMP180;10739;52.198;20.908;2024-03-29T09:02:58;99299.00;;;18.50
45850;BMP180;10739;52.198;20.908;2024-03-29T09:05:27;99294.00;;;18.60
45850;BMP180;10739;52.198;20.908;2024-03-29T09:07:55;99306.00;;;19.60
45850;BMP180;10739;52.198;20.908;2024-03-29T09:10:23;99314.00;;;19.30
45850;BMP180;10739;52.198;20.908;2024-03-29T09:12:53;99316.00;;;20.10
45850;BMP180;10739;52.198;20.908;2024-03-29T09:15:19;99307.00;;;20.40
45850;BMP180;10739;52.198;20.908;2024-03-29T09:17:46;99312.00;;;21.80
45850;BMP180;10739;52.198;20.908;2024-03-29T09:20:13;99328.00;;;20.50
45850;BMP180;10739;52.198;20.908;2024-03-29T09:22:40;99328.00;;;21.30
45850;BMP180;10739;52.198;20.908;2024-03-29T09:25:07;99323.00;;;20.00
45850;BMP180;10739;52.198;20.908;2024-03-29T09:27:36;99322.00;;;20.70
45850;BMP180;10739;52.198;20.908;2024-03-29T09:30:06;99324.00;;;20.80
45850;BMP180;10739;52.198;20.908;2024-03-29T09:32:33;99318.00;;;20.80
45850;BMP180;10739;52.198;20.908;2024-03-29T09:34:59;99325.00;;;20.80
45850;BMP180;10739;52.198;20.908;2024-03-29T09:37:27;99320.00;;;19.90
45850;BMP180;10739;52.198;20.908;2024-03-29T09:39:53;99327.00;;;20.60
45850;BMP180;10739;52.198;20.908;2024-03-29T09:42:22;99313.00;;;20.90
45850;BMP180;10739;52.198;20.908;2024-03-29T09:44:51;99311.00;;;21.30
45850;BMP180;10739;52.198;20.908;2024-03-29T09:47:18;99308.00;;;20.80
45850;BMP180;10739;52.198;20.908;2024-03-29T09:49:47;99326.00;;;21.30
45850;BMP180;10739;52.198;20.908;2024-03-29T09:52:16;99317.00;;;20.40
45850;BMP180;10739;52.198;20.908;2024-03-29T09:54:43;99323.00;;;20.40
45850;BMP180;10739;52.198;20.908;2024-03-29T09:57:12;99332.00;;;20.20
45850;BMP180;10739;52.198;20.908;2024-03-29T09:59:39;99332.00;;;20.30
45850;BMP180;10739;52.198;20.908;2024-03-29T10:02:15;99330.00;;;19.40
45850;BMP180;10739;52.198;20.908;2024-03-29T10:04:45;99332.00;;;20.90
45850;BMP180;10739;52.198;20.908;2024-03-29T10:07:12;99334.00;;;21.30
45850;BMP180;10739;52.198;20.908;2024-03-29T10:09:43;99330.00;;;22.70
45850;BMP180;10739;52.198;20.908;2024-03-29T10:12:10;99331.00;;;21.60
45850;BMP180;10739;52.198;20.908;2024-03-29T10:14:49;99327.00;;;21.20
45850;BMP180;10739;52.198;20.908;2024-03-29T10:17:16;99334.00;;;21.30
45850;BMP180;10739;52.198;20.908;2024-03-29T10:19:46;99319.00;;;22.20
45850;BMP180;10739;52.198;20.908;2024-03-29T10:22:13;99321.00;;;21.60
45850;BMP180;10739;52.198;20.908;2024-03-29T10:24:39;99317.00;;;21.00
45850;BMP180;10739;52.198;20.908;2024-03-29T10:27:05;99310.00;;;21.50
45850;BMP180;10739;52.198;20.908;2024-03-29T10:29:32;99329.00;;;21.70
45850;BMP180;10739;52.198;20.908;2024-03-29T10:31:58;99332.00;;;21.80
45850;BMP180;10739;52.198;20.908;2024-03-29T10:34:27;99327.00;;;21.90
45850;BMP180;10739;52.198;20.908;2024-03-29T10:37:03;99328.00;;;21.60
45850;BMP180;10739;52.198;20.908;2024-03-29T10:39:33;99356.00;;;21.40
45850;BMP180;10739;52.198;20.908;2024-03-29T10:42:01;99349.00;;;20.80
45850;BMP180;10739;52.198;20.908;2024-03-29T10:44:28;99338.00;;;19.90
45850;BMP180;10739;52.198;20.908;2024-03-29T10:46:57;99337.00;;;19.30
45850;BMP180;10739;52.198;20.908;2024-03-29T10:49:24;99334.00;;;19.10
45850;BMP180;10739;52.198;20.908;2024-03-29T10:51:53;99351.00;;;19.00
45850;BMP180;10739;52.198;20.908;2024-03-29T10:54:19;99334.00;;;18.20
45850;BMP180;10739;52.198;20.908;2024-03-29T10:56:55;99339.00;;;18.40
45850;BMP180;10739;52.198;20.908;2024-03-29T10:59:35;99339.00;;;18.80
45850;BMP180;10739;52.198;20.908;2024-03-29T11:02:14;99341.00;;;18.70
45850;BMP180;10739;52.198;20.908;2024-03-29T11:04:44;99338.00;;;18.50
45850;BMP180;10739;52.198;20.908;2024-03-29T11:07:19;99335.00;;;18.30
45850;BMP180;10739;52.198;20.908;2024-03-29T11:09:56;99350.00;;;18.00
45850;BMP180;10739;52.198;20.908;2024-03-29T11:12:23;99355.00;;;18.40
45850;BMP180;10739;52.198;20.908;2024-03-29T11:15:03;99338.00;;;17.70
45850;BMP180;10739;52.198;20.908;2024-03-29T11:17:32;99347.00;;;18.10
45850;BMP180;10739;52.198;20.908;2024-03-29T11:19:59;99341.00;;;18.00
45850;BMP180;10739;52.198;20.908;2024-03-29T11:22:27;99332.00;;;18.20
45850;BMP180;10739;52.198;20.908;2024-03-29T11:24:53;99343.00;;;17.90
45850;BMP180;10739;52.198;20.908;2024-03-29T11:27:23;99327.00;;;17.60
45850;BMP180;10739;52.198;20.908;2024-03-29T11:29:52;99328.00;;;18.30
45850;BMP180;10739;52.198;20.908;2024-03-29T11:32:37;99326.00;;;18.20
45850;BMP180;10739;52.198;20.908;2024-03-29T11:35:14;99318.00;;;18.90
45850;BMP180;10739;52.198;20.908;2024-03-29T11:37:41;99322.00;;;19.20
45850;BMP180;10739;52.198;20.908;2024-03-29T11:40:11;99321.00;;;18.90
45850;BMP180;10739;52.198;20.908;2024-03-29T11:42:44;99324.00;;;18.60
45850;BMP180;10739;52.198;20.908;2024-03-29T11:45:11;99328.00;;;19.10
45850;BMP180;10739;52.198;20.908;2024-03-29T11:47:39;99331.00;;;19.10
45850;BMP180;10739;52.198;20.908;2024-03-29T11:50:08;99337.00;;;18.30
45850;BMP180;10739;52.198;20.908;2024-03-29T11:52:37;99351.00;;;18.60
45850;BMP180;10739;52.198;20.908;2024-03-29T11:55:05;99347.00;;;19.30
45850;BMP180;10739;52.198;20.908;2024-03-29T11:57:31;99357.00;;;18.30
45850;BMP180;10739;52.198;20.908;2024-03-29T11:59:57;99347.00;;;18.50
45850;BMP180;10739;52.198;20.908;2024-03-29T12:02:24;99350.00;;;18.70
45850;BMP180;10739;52.198;20.908;2024-03-29T12:04:50;99344.00;;;18.50
45850;BMP180;10739;52.198;20.908;2024-03-29T12:07:16;99330.00;;;18.20
45850;BMP180;10739;52.198;20.908;2024-03-29T12:09:43;99334.00;;;18.90
45850;BMP180;10739;52.198;20.908;2024-03-29T12:12:09;99349.00;;;19.30
45850;BMP180;10739;52.198;20.908;2024-03-29T12:14:37;99343.00;;;19.00
45850;BMP180;10739;52.198;20.908;2024-03-29T12:17:12;99342.00;;;19.10
45850;BMP180;10739;52.198;20.908;2024-03-29T12:19:39;99360.00;;;19.00
45850;BMP180;10739;52.198;20.908;2024-03-29T12:22:08;99350.00;;;19.20
45850;BMP180;10739;52.198;20.908;2024-03-29T12:24:36;99352.00;;;19.00
45850;BMP180;10739;52.198;20.908;2024-03-29T12:27:02;99356.00;;;19.60
45850;BMP180;10739;52.198;20.908;2024-03-29T12:29:29;99355.00;;;19.40
45850;BMP180;10739;52.198;20.908;2024-03-29T12:32:02;99355.00;;;19.10
45850;BMP180;10739;52.198;20.908;2024-03-29T12:34:28;99361.00;;;18.60
45850;BMP180;10739;52.198;20.908;2024-03-29T12:36:54;99358.00;;;18.60
45850;BMP180;10739;52.198;20.908;2024-03-29T12:39:21;99367.00;;;18.60
45850;BMP180;10739;52.198;20.908;2024-03-29T12:41:47;99360.00;;;19.30
45850;BMP180;10739;52.198;20.908;2024-03-29T12:44:14;99367.00;;;19.40
45850;BMP180;10739;52.198;20.908;2024-03-29T12:46:40;99367.00;;;19.80
45850;BMP180;10739;52.198;20.908;2024-03-29T12:49:06;99373.00;;;19.60
45850;BMP180;10739;52.198;20.908;2024-03-29T12:51:32;99364.00;;;19.10
45850;BMP180;10739;52.198;20.908;2024-03-29T12:54:02;99364.00;;;19.30
45850;BMP180;10739;52.198;20.908;2024-03-29T12:56:30;99367.00;;;19.20
45850;BMP180;10739;52.198;20.908;2024-03-29T12:58:57;99364.00;;;19.60
45850;BMP180;10739;52.198;20.908;2024-03-29T13:01:23;99365.00;;;19.00
45850;BMP180;10739;52.198;20.908;2024-03-29T13:03:49;99362.00;;;19.30
45850;BMP180;10739;52.198;20.908;2024-03-29T13:06:16;99360.00;;;19.30
45850;BMP180;10739;52.198;20.908;2024-03-29T13:08:42;99359.00;;;19.30
45850;BMP180;10739;52.198;20.908;2024-03-29T13:11:08;99353.00;;;19.80
45850;BMP180;10739;52.198;20.908;2024-03-29T13:13:36;99364.00;;;20.00
45850;BMP180;10739;52.198;20.908;2024-03-29T13:16:03;99360.00;;;19.80
45850;BMP180;10739;52.198;20.908;2024-03-29T13:18:29;99363.00;;;19.70
45850;BMP180;10739;52.198;20.908;2024-03-29T13:20:55;99364.00;;;19.80
45850;BMP180;10739;52.198;20.908;2024-03-29T13:23:22;99358.00;;;19.90
45850;BMP180;10739;52.198;20.908;2024-03-29T13:25:48;99366.00;;;20.00
45850;BMP180;10739;52.198;20.908;2024-03-29T13:28:14;99367.00;;;20.40
45850;BMP180;10739;52.198;20.908;2024-03-29T13:30:40;99374.00;;;20.50
45850;BMP180;10739;52.198;20.908;2024-03-29T13:33:11;99371.00;;;20.60
45850;BMP180;10739;52.198;20.908;2024-03-29T13:35:38;99371.00;;;20.60
45850;BMP180;10739;52.198;20.908;2024-03-29T13:38:05;99393.00;;;20.40
45850;BMP180;10739;52.198;20.908;2024-03-29T13:40:31;99390.00;;;21.00
45850;BMP180;10739;52.198;20.908;2024-03-29T13:42:58;99390.00;;;20.50
45850;BMP180;10739;52.198;20.908;2024-03-29T13:45:24;99381.00;;;20.70
45850;BMP180;10739;52.198;20.908;2024-03-29T13:47:54;99404.00;;;20.80
45850;BMP180;10739;52.198;20.908;2024-03-29T13:50:19;99398.00;;;19.70
45850;BMP180;10739;52.198;20.908;2024-03-29T13:52:46;99399.00;;;19.10
45850;BMP180;10739;52.198;20.908;2024-03-29T13:55:13;99386.00;;;20.20
45850;BMP180;10739;52.198;20.908;2024-03-29T13:57:40;99385.00;;;20.40
45850;BMP180;10739;52.198;20.908;2024-03-29T14:00:07;99384.00;;;20.90